sensor_id;sensor_type;location;lat;lon;timestamp;P1;durP1;ratioP1;P2;durP2;ratioP2
64894;SDS011;51588;53.702;10.208;2023-02-11T00:01:30;10.30;;;6.80;;
64894;SDS011;51588;53.702;10.208;2023-02-11T00:03:58;9.80;;;6.90;;
64894;SDS011;51588;53.702;10.208;2023-02-11T00:06:26;9.93;;;7.03;;
64894;SDS011;51588;53.702;10.208;2023-02-11T00:08:53;9.80;;;6.70;;
64894;SDS011;51588;53.702;10.208;2023-02-11T00:11:20;11.10;;;7.07;;
64894;SDS011;51588;53.702;10.208;2023-02-11T00:13:47;11.50;;;7.50;;
64894;SDS011;51588;53.702;10.208;2023-02-11T00:16:14;10.60;;;7.33;;
64894;SDS011;51588;53.702;10.208;2023-02-11T00:18:41;9.97;;;7.10;;
64894;SDS011;51588;53.702;10.208;2023-02-11T00:21:10;9.27;;;6.57;;
64894;SDS011;51588;53.702;10.208;2023-02-11T00:23:37;8.73;;;6.80;;
64894;SDS011;51588;53.702;10.208;2023-02-11T00:26:04;10.30;;;6.90;;
64894;SDS011;51588;53.702;10.208;2023-02-11T00:28:36;8.30;;;6.50;;
64894;SDS011;51588;53.702;10.208;2023-02-11T00:31:02;9.73;;;6.40;;
64894;SDS011;51588;53.702;10.208;2023-02-11T00:33:29;9.03;;;6.67;;
64894;SDS011;51588;53.702;10.208;2023-02-11T00:35:55;10.23;;;6.43;;
64894;SDS011;51588;53.702;10.208;2023-02-11T00:38:23;10.00;;;6.93;;
64894;SDS011;51588;53.702;10.208;2023-02-11T00:40:49;9.13;;;6.57;;
64894;SDS011;51588;53.702;10.208;2023-02-11T00:43:16;10.57;;;7.53;;
64894;SDS011;51588;53.702;10.208;2023-02-11T00:45:42;8.30;;;6.53;;
64894;SDS011;51588;53.702;10.208;2023-02-11T00:48:08;9.63;;;6.27;;
64894;SDS011;51588;53.702;10.208;2023-02-11T00:50:35;8.43;;;6.10;;
64894;SDS011;51588;53.702;10.208;2023-02-11T00:53:01;8.70;;;6.13;;
64894;SDS011;51588;53.702;10.208;2023-02-11T00:55:29;8.53;;;6.10;;
64894;SDS011;51588;53.702;10.208;2023-02-11T00:57:55;9.17;;;5.67;;
64894;SDS011;51588;53.702;10.208;2023-02-11T01:00:22;8.97;;;6.00;;
64894;SDS011;51588;53.702;10.208;2023-02-11T01:02:49;8.47;;;6.17;;
64894;SDS011;51588;53.702;10.208;2023-02-11T01:05:15;9.67;;;6.30;;
64894;SDS011;51588;53.702;10.208;2023-02-11T01:07:42;7.60;;;5.70;;
64894;SDS011;51588;53.702;10.208;2023-02-11T01:10:08;10.50;;;6.27;;
64894;SDS011;51588;53.702;10.208;2023-02-11T01:12:36;9.57;;;5.87;;
64894;SDS011;51588;53.702;10.208;2023-02-11T01:15:03;7.60;;;5.30;;
64894;SDS011;51588;53.702;10.208;2023-02-11T01:17:29;8.40;;;5.70;;
64894;SDS011;51588;53.702;10.208;2023-02-11T01:19:55;8.93;;;5.90;;
64894;SDS011;51588;53.702;10.208;2023-02-11T01:22:22;9.63;;;5.90;;
64894;SDS011;51588;53.702;10.208;2023-02-11T01:24:48;8.03;;;5.57;;
64894;SDS011;51588;53.702;10.208;2023-02-11T01:27:15;10.60;;;6.37;;
64894;SDS011;51588;53.702;10.208;2023-02-11T01:29:42;9.17;;;5.87;;
64894;SDS011;51588;53.702;10.208;2023-02-11T01:32:09;9.10;;;5.97;;
64894;SDS011;51588;53.702;10.208;2023-02-11T01:34:35;8.60;;;5.60;;
64894;SDS011;51588;53.702;10.208;2023-02-11T01:37:01;7.73;;;5.40;;
64894;SDS011;51588;53.702;10.208;2023-02-11T01:39:28;7.33;;;5.70;;
64894;SDS011;51588;53.702;10.208;2023-02-11T01:41:57;8.40;;;6.20;;
64894;SDS011;51588;53.702;10.208;2023-02-11T01:44:25;8.13;;;6.17;;
64894;SDS011;51588;53.702;10.208;2023-02-11T01:46:53;8.77;;;5.90;;
64894;SDS011;51588;53.702;10.208;2023-02-11T01:49:20;6.97;;;5.40;;
64894;SDS011;51588;53.702;10.208;2023-02-11T01:51:48;9.23;;;6.27;;
64894;SDS011;51588;53.702;10.208;2023-02-11T01:54:17;9.27;;;5.70;;
64894;SDS011;51588;53.702;10.208;2023-02-11T01:57:02;9.73;;;5.43;;
64894;SDS011;51588;53.702;10.208;2023-02-11T01:59:51;7.87;;;5.60;;
64894;SDS011;51588;53.702;10.208;2023-02-11T02:02:21;9.17;;;5.40;;
64894;SDS011;51588;53.702;10.208;2023-02-11T02:04:49;9.20;;;5.97;;
64894;SDS011;51588;53.702;10.208;2023-02-11T02:07:19;7.77;;;5.53;;
64894;SDS011;51588;53.702;10.208;2023-02-11T02:09:49;8.13;;;5.50;;
64894;SDS011;51588;53.702;10.208;2023-02-11T02:12:17;9.27;;;6.37;;
64894;SDS011;51588;53.702;10.208;2023-02-11T02:14:43;7.13;;;5.30;;
64894;SDS011;51588;53.702;10.208;2023-02-11T02:17:23;6.73;;;5.17;;
64894;SDS011;51588;53.702;10.208;2023-02-11T02:20:06;6.70;;;5.10;;
64894;SDS011;51588;53.702;10.208;2023-02-11T02:22:49;8.53;;;5.67;;
64894;SDS011;51588;53.702;10.208;2023-02-11T02:25:22;8.37;;;5.80;;
64894;SDS011;51588;53.702;10.208;2023-02-11T02:27:52;8.87;;;5.23;;
64894;SDS011;51588;53.702;10.208;2023-02-11T02:33:10;7.53;;;5.43;;
64894;SDS011;51588;53.702;10.208;2023-02-11T02:35:41;9.00;;;5.53;;
64894;SDS011;51588;53.702;10.208;2023-02-11T02:38:12;7.73;;;5.07;;
64894;SDS011;51588;53.702;10.208;2023-02-11T02:40:41;6.57;;;4.90;;
64894;SDS011;51588;53.702;10.208;2023-02-11T02:43:10;6.50;;;5.30;;
64894;SDS011;51588;53.702;10.208;2023-02-11T02:45:37;9.77;;;5.50;;
64894;SDS011;51588;53.702;10.208;2023-02-11T02:48:03;7.70;;;5.10;;
64894;SDS011;51588;53.702;10.208;2023-02-11T02:50:32;8.93;;;5.27;;
64894;SDS011;51588;53.702;10.208;2023-02-11T02:53:04;8.90;;;5.80;;
64894;SDS011;51588;53.702;10.208;2023-02-11T02:55:37;7.03;;;4.70;;
64894;SDS011;51588;53.702;10.208;2023-02-11T02:58:20;8.43;;;5.57;;
64894;SDS011;51588;53.702;10.208;2023-02-11T03:00:51;6.20;;;4.97;;
64894;SDS011;51588;53.702;10.208;2023-02-11T03:03:22;8.07;;;5.30;;
64894;SDS011;51588;53.702;10.208;2023-02-11T03:05:55;5.93;;;4.67;;
64894;SDS011;51588;53.702;10.208;2023-02-11T03:08:24;7.63;;;5.00;;
64894;SDS011;51588;53.702;10.208;2023-02-11T03:10:53;6.80;;;4.97;;
64894;SDS011;51588;53.702;10.208;2023-02-11T03:13:21;7.20;;;5.20;;
64894;SDS011;51588;53.702;10.208;2023-02-11T03:15:50;8.37;;;5.40;;
64894;SDS011;51588;53.702;10.208;2023-02-11T03:18:17;7.50;;;4.87;;
64894;SDS011;51588;53.702;10.208;2023-02-11T03:20:45;8.03;;;5.17;;
64894;SDS011;51588;53.702;10.208;2023-02-11T03:23:15;7.20;;;4.80;;
64894;SDS011;51588;53.702;10.208;2023-02-11T03:25:44;7.93;;;5.53;;
64894;SDS011;51588;53.702;10.208;2023-02-11T03:28:14;7.23;;;4.60;;
64894;SDS011;51588;53.702;10.208;2023-02-11T03:30:44;6.10;;;4.40;;
64894;SDS011;51588;53.702;10.208;2023-02-11T03:33:13;6.57;;;4.73;;
64894;SDS011;51588;53.702;10.208;2023-02-11T03:35:44;7.33;;;4.50;;
64894;SDS011;51588;53.702;10.208;2023-02-11T03:38:11;6.70;;;4.60;;
64894;SDS011;51588;53.702;10.208;2023-02-11T03:40:41;9.23;;;5.30;;
64894;SDS011;51588;53.702;10.208;2023-02-11T03:43:10;9.70;;;4.83;;
64894;SDS011;51588;53.702;10.208;2023-02-11T03:45:37;6.97;;;5.53;;
64894;SDS011;51588;53.702;10.208;2023-02-11T03:48:04;7.67;;;4.30;;
64894;SDS011;51588;53.702;10.208;2023-02-11T03:50:31;7.57;;;4.90;;
64894;SDS011;51588;53.702;10.208;2023-02-11T03:52:59;8.00;;;4.73;;
64894;SDS011;51588;53.702;10.208;2023-02-11T03:55:27;6.87;;;4.40;;
64894;SDS011;51588;53.702;10.208;2023-02-11T03:57:55;6.43;;;4.27;;
64894;SDS011;51588;53.702;10.208;2023-02-11T04:00:28;8.87;;;5.00;;
64894;SDS011;51588;53.702;10.208;2023-02-11T04:02:54;7.93;;;4.23;;
64894;SDS011;51588;53.702;10.208;2023-02-11T04:05:21;7.00;;;4.27;;
64894;SDS011;51588;53.702;10.208;2023-02-11T04:07:47;9.57;;;5.30;;
64894;SDS011;51588;53.702;10.208;2023-02-11T04:10:13;7.00;;;4.10;;
64894;SDS011;51588;53.702;10.208;2023-02-11T04:12:40;5.73;;;4.20;;
64894;SDS011;51588;53.702;10.208;2023-02-11T04:15:08;6.93;;;4.00;;
64894;SDS011;51588;53.702;10.208;2023-02-11T04:17:35;6.03;;;4.17;;
64894;SDS011;51588;53.702;10.208;2023-02-11T04:20:01;5.90;;;4.33;;
64894;SDS011;51588;53.702;10.208;2023-02-11T04:22:28;6.30;;;4.20;;
64894;SDS011;51588;53.702;10.208;2023-02-11T04:24:54;5.00;;;3.83;;
64894;SDS011;51588;53.702;10.208;2023-02-11T04:27:21;7.37;;;4.00;;
64894;SDS011;51588;53.702;10.208;2023-02-11T04:29:47;6.67;;;4.73;;
64894;SDS011;51588;53.702;10.208;2023-02-11T04:32:15;6.50;;;4.77;;
64894;SDS011;51588;53.702;10.208;2023-02-11T04:34:41;6.10;;;4.40;;
64894;SDS011;51588;53.702;10.208;2023-02-11T04:37:08;8.00;;;4.57;;
64894;SDS011;51588;53.702;10.208;2023-02-11T04:39:34;6.83;;;4.60;;
64894;SDS011;51588;53.702;10.208;2023-02-11T04:42:01;6.87;;;4.03;;
64894;SDS011;51588;53.702;10.208;2023-02-11T04:44:27;6.20;;;3.90;;
64894;SDS011;51588;53.702;10.208;2023-02-11T04:46:54;5.80;;;3.90;;
64894;SDS011;51588;53.702;10.208;2023-02-11T04:49:22;6.83;;;4.70;;
64894;SDS011;51588;53.702;10.208;2023-02-11T04:51:48;4.27;;;3.70;;
64894;SDS011;51588;53.702;10.208;2023-02-11T04:54:15;6.80;;;4.30;;
64894;SDS011;51588;53.702;10.208;2023-02-11T04:56:41;6.30;;;4.27;;
64894;SDS011;51588;53.702;10.208;2023-02-11T04:59:08;5.63;;;4.13;;
64894;SDS011;51588;53.702;10.208;2023-02-11T05:01:35;4.73;;;3.70;;
64894;SDS011;51588;53.702;10.208;2023-02-11T05:04:01;6.10;;;4.03;;
64894;SDS011;51588;53.702;10.208;2023-02-11T05:06:29;6.60;;;4.23;;
64894;SDS011;51588;53.702;10.208;2023-02-11T05:08:56;6.90;;;3.90;;
64894;SDS011;51588;53.702;10.208;2023-02-11T05:11:23;4.83;;;3.87;;
64894;SDS011;51588;53.702;10.208;2023-02-11T05:13:50;6.23;;;4.10;;
64894;SDS011;51588;53.702;10.208;2023-02-11T05:16:16;5.73;;;3.93;;
64894;SDS011;51588;53.702;10.208;2023-02-11T05:18:43;5.17;;;3.90;;
64894;SDS011;51588;53.702;10.208;2023-02-11T05:21:10;5.50;;;4.20;;
64894;SDS011;51588;53.702;10.208;2023-02-11T05:23:39;7.00;;;4.00;;
64894;SDS011;51588;53.702;10.208;2023-02-11T05:26:06;5.80;;;4.10;;
64894;SDS011;51588;53.702;10.208;2023-02-11T05:28:32;6.00;;;3.90;;
64894;SDS011;51588;53.702;10.208;2023-02-11T05:30:59;3.90;;;3.17;;
64894;SDS011;51588;53.702;10.208;2023-02-11T05:33:25;6.83;;;4.27;;
64894;SDS011;51588;53.702;10.208;2023-02-11T05:35:56;5.47;;;3.40;;
64894;SDS011;51588;53.702;10.208;2023-02-11T05:38:22;5.67;;;3.70;;
64894;SDS011;51588;53.702;10.208;2023-02-11T05:40:50;5.90;;;3.80;;
64894;SDS011;51588;53.702;10.208;2023-02-11T05:43:17;4.23;;;3.30;;
64894;SDS011;51588;53.702;10.208;2023-02-11T05:45:43;7.10;;;4.20;;
64894;SDS011;51588;53.702;10.208;2023-02-11T05:48:09;6.10;;;3.83;;
64894;SDS011;51588;53.702;10.208;2023-02-11T05:50:36;4.97;;;3.47;;
64894;SDS011;51588;53.702;10.208;2023-02-11T05:53:02;6.20;;;3.40;;
64894;SDS011;51588;53.702;10.208;2023-02-11T05:55:29;5.50;;;3.77;;
64894;SDS011;51588;53.702;10.208;2023-02-11T05:57:57;5.00;;;3.97;;
64894;SDS011;51588;53.702;10.208;2023-02-11T06:00:24;4.03;;;3.23;;
64894;SDS011;51588;53.702;10.208;2023-02-11T06:02:50;5.20;;;3.73;;
64894;SDS011;51588;53.702;10.208;2023-02-11T06:05:17;6.80;;;3.87;;
64894;SDS011;51588;53.702;10.208;2023-02-11T06:07:43;5.43;;;3.80;;
64894;SDS011;51588;53.702;10.208;2023-02-11T06:10:09;6.20;;;3.80;;
64894;SDS011;51588;53.702;10.208;2023-02-11T06:12:36;4.53;;;3.30;;
64894;SDS011;51588;53.702;10.208;2023-02-11T06:15:04;4.47;;;3.30;;
64894;SDS011;51588;53.702;10.208;2023-02-11T06:17:31;6.00;;;3.33;;
64894;SDS011;51588;53.702;10.208;2023-02-11T06:19:58;5.27;;;3.53;;
64894;SDS011;51588;53.702;10.208;2023-02-11T06:22:25;4.17;;;3.00;;
64894;SDS011;51588;53.702;10.208;2023-02-11T06:24:51;5.00;;;3.43;;
64894;SDS011;51588;53.702;10.208;2023-02-11T06:27:17;4.83;;;3.10;;
64894;SDS011;51588;53.702;10.208;2023-02-11T06:29:44;5.43;;;3.70;;
64894;SDS011;51588;53.702;10.208;2023-02-11T06:32:12;5.37;;;3.33;;
64894;SDS011;51588;53.702;10.208;2023-02-11T06:34:38;5.17;;;3.10;;
64894;SDS011;51588;53.702;10.208;2023-02-11T06:37:05;3.97;;;3.17;;
64894;SDS011;51588;53.702;10.208;2023-02-11T06:39:31;4.70;;;3.23;;
64894;SDS011;51588;53.702;10.208;2023-02-11T06:41:58;4.63;;;3.27;;
64894;SDS011;51588;53.702;10.208;2023-02-11T06:44:24;3.30;;;3.00;;
64894;SDS011;51588;53.702;10.208;2023-02-11T06:46:51;2.83;;;2.50;;
64894;SDS011;51588;53.702;10.208;2023-02-11T06:49:18;3.97;;;2.80;;
64894;SDS011;51588;53.702;10.208;2023-02-11T06:51:45;4.60;;;3.10;;
64894;SDS011;51588;53.702;10.208;2023-02-11T06:54:11;4.23;;;2.63;;
64894;SDS011;51588;53.702;10.208;2023-02-11T06:56:38;4.10;;;2.87;;
64894;SDS011;51588;53.702;10.208;2023-02-11T06:59:05;3.40;;;2.67;;
64894;SDS011;51588;53.702;10.208;2023-02-11T07:01:31;4.50;;;3.03;;
64894;SDS011;51588;53.702;10.208;2023-02-11T07:03:58;3.83;;;2.50;;
64894;SDS011;51588;53.702;10.208;2023-02-11T07:06:25;4.10;;;2.67;;
64894;SDS011;51588;53.702;10.208;2023-02-11T07:08:52;3.30;;;2.90;;
64894;SDS011;51588;53.702;10.208;2023-02-11T07:11:20;4.33;;;2.87;;
64894;SDS011;51588;53.702;10.208;2023-02-11T07:13:48;4.00;;;2.80;;
64894;SDS011;51588;53.702;10.208;2023-02-11T07:16:15;3.97;;;2.50;;
64894;SDS011;51588;53.702;10.208;2023-02-11T07:18:43;4.03;;;2.70;;
64894;SDS011;51588;53.702;10.208;2023-02-11T07:21:10;2.63;;;2.20;;
64894;SDS011;51588;53.702;10.208;2023-02-11T07:23:38;4.27;;;2.83;;
64894;SDS011;51588;53.702;10.208;2023-02-11T07:26:05;3.50;;;2.83;;
64894;SDS011;51588;53.702;10.208;2023-02-11T07:28:32;3.47;;;2.30;;
64894;SDS011;51588;53.702;10.208;2023-02-11T07:31:04;3.67;;;2.33;;
64894;SDS011;51588;53.702;10.208;2023-02-11T07:33:30;2.33;;;2.00;;
64894;SDS011;51588;53.702;10.208;2023-02-11T07:35:58;3.30;;;2.40;;
64894;SDS011;51588;53.702;10.208;2023-02-11T07:38:25;3.40;;;2.40;;
64894;SDS011;51588;53.702;10.208;2023-02-11T07:40:53;5.97;;;2.70;;
64894;SDS011;51588;53.702;10.208;2023-02-11T07:43:19;2.73;;;2.00;;
64894;SDS011;51588;53.702;10.208;2023-02-11T07:45:45;4.07;;;2.87;;
64894;SDS011;51588;53.702;10.208;2023-02-11T07:48:12;3.40;;;2.40;;
64894;SDS011;51588;53.702;10.208;2023-02-11T07:50:38;3.10;;;2.37;;
64894;SDS011;51588;53.702;10.208;2023-02-11T07:53:05;2.80;;;2.23;;
64894;SDS011;51588;53.702;10.208;2023-02-11T07:55:32;3.53;;;2.30;;
64894;SDS011;51588;53.702;10.208;2023-02-11T07:57:59;2.93;;;2.20;;
64894;SDS011;51588;53.702;10.208;2023-02-11T08:00:26;3.57;;;2.50;;
64894;SDS011;51588;53.702;10.208;2023-02-11T08:02:52;2.90;;;2.53;;
64894;SDS011;51588;53.702;10.208;2023-02-11T08:05:19;3.70;;;2.47;;
64894;SDS011;51588;53.702;10.208;2023-02-11T08:07:45;2.93;;;2.47;;
64894;SDS011;51588;53.702;10.208;2023-02-11T08:10:11;4.67;;;2.17;;
64894;SDS011;51588;53.702;10.208;2023-02-11T08:12:38;3.47;;;2.57;;
64894;SDS011;51588;53.702;10.208;2023-02-11T08:15:06;3.50;;;2.40;;
64894;SDS011;51588;53.702;10.208;2023-02-11T08:17:33;5.37;;;2.90;;
64894;SDS011;51588;53.702;10.208;2023-02-11T08:19:59;3.53;;;2.57;;
64894;SDS011;51588;53.702;10.208;2023-02-11T08:22:26;5.37;;;2.70;;
64894;SDS011;51588;53.702;10.208;2023-02-11T08:24:52;9.70;;;3.07;;
64894;SDS011;51588;53.702;10.208;2023-02-11T08:27:19;7.53;;;2.70;;
64894;SDS011;51588;53.702;10.208;2023-02-11T08:29:45;9.00;;;2.67;;
64894;SDS011;51588;53.702;10.208;2023-02-11T08:32:13;5.87;;;2.50;;
64894;SDS011;51588;53.702;10.208;2023-02-11T08:34:39;10.63;;;2.60;;
64894;SDS011;51588;53.702;10.208;2023-02-11T08:37:05;5.53;;;2.50;;
64894;SDS011;51588;53.702;10.208;2023-02-11T08:39:33;8.57;;;3.13;;
64894;SDS011;51588;53.702;10.208;2023-02-11T08:41:59;12.97;;;3.80;;
64894;SDS011;51588;53.702;10.208;2023-02-11T08:44:25;11.00;;;4.10;;
64894;SDS011;51588;53.702;10.208;2023-02-11T08:46:52;12.73;;;4.60;;
64894;SDS011;51588;53.702;10.208;2023-02-11T08:49:20;12.57;;;3.87;;
64894;SDS011;51588;53.702;10.208;2023-02-11T08:51:46;10.73;;;4.63;;
64894;SDS011;51588;53.702;10.208;2023-02-11T08:54:13;13.83;;;5.30;;
64894;SDS011;51588;53.702;10.208;2023-02-11T08:56:39;9.80;;;3.77;;
64894;SDS011;51588;53.702;10.208;2023-02-11T08:59:06;9.90;;;4.17;;
64894;SDS011;51588;53.702;10.208;2023-02-11T09:01:33;13.23;;;4.73;;
64894;SDS011;51588;53.702;10.208;2023-02-11T09:03:59;35.10;;;23.47;;
64894;SDS011;51588;53.702;10.208;2023-02-11T09:06:27;58.63;;;43.33;;
64894;SDS011;51588;53.702;10.208;2023-02-11T09:08:54;57.10;;;44.37;;
64894;SDS011;51588;53.702;10.208;2023-02-11T09:11:23;76.60;;;53.67;;
64894;SDS011;51588;53.702;10.208;2023-02-11T09:13:50;87.43;;;63.07;;
64894;SDS011;51588;53.702;10.208;2023-02-11T09:16:17;93.37;;;68.10;;
64894;SDS011;51588;53.702;10.208;2023-02-11T09:18:44;105.70;;;77.60;;
64894;SDS011;51588;53.702;10.208;2023-02-11T09:21:11;123.57;;;94.67;;
64894;SDS011;51588;53.702;10.208;2023-02-11T09:23:39;135.73;;;104.57;;
64894;SDS011;51588;53.702;10.208;2023-02-11T09:26:08;139.27;;;111.70;;
64894;SDS011;51588;53.702;10.208;2023-02-11T09:28:34;142.50;;;108.10;;
64894;SDS011;51588;53.702;10.208;2023-02-11T09:31:03;138.00;;;107.70;;
64894;SDS011;51588;53.702;10.208;2023-02-11T09:33:29;140.63;;;107.27;;
64894;SDS011;51588;53.702;10.208;2023-02-11T09:35:58;130.27;;;101.07;;
64894;SDS011;51588;53.702;10.208;2023-02-11T09:38:25;130.20;;;102.17;;
64894;SDS011;51588;53.702;10.208;2023-02-11T09:40:53;124.73;;;94.00;;
64894;SDS011;51588;53.702;10.208;2023-02-11T09:43:20;111.93;;;86.50;;
64894;SDS011;51588;53.702;10.208;2023-02-11T09:45:47;116.63;;;88.00;;
64894;SDS011;51588;53.702;10.208;2023-02-11T09:48:14;108.33;;;84.83;;
64894;SDS011;51588;53.702;10.208;2023-02-11T09:50:42;104.43;;;75.40;;
64894;SDS011;51588;53.702;10.208;2023-02-11T09:53:10;93.30;;;68.80;;
64894;SDS011;51588;53.702;10.208;2023-02-11T09:55:40;90.60;;;65.50;;
64894;SDS011;51588;53.702;10.208;2023-02-11T09:58:12;85.40;;;63.60;;
64894;SDS011;51588;53.702;10.208;2023-02-11T10:00:39;79.97;;;58.70;;
64894;SDS011;51588;53.702;10.208;2023-02-11T10:03:25;79.30;;;55.90;;
64894;SDS011;51588;53.702;10.208;2023-02-11T10:06:10;60.47;;;42.57;;
64894;SDS011;51588;53.702;10.208;2023-02-11T10:08:42;57.27;;;39.70;;
64894;SDS011;51588;53.702;10.208;2023-02-11T10:11:15;54.17;;;40.33;;
64894;SDS011;51588;53.702;10.208;2023-02-11T10:13:48;52.57;;;37.30;;
64894;SDS011;51588;53.702;10.208;2023-02-11T10:16:20;52.20;;;36.27;;
64894;SDS011;51588;53.702;10.208;2023-02-11T10:18:55;42.30;;;33.30;;
64894;SDS011;51588;53.702;10.208;2023-02-11T10:21:24;49.43;;;32.37;;
64894;SDS011;51588;53.702;10.208;2023-02-11T10:23:55;42.63;;;31.83;;
64894;SDS011;51588;53.702;10.208;2023-02-11T10:26:22;40.10;;;30.53;;
64894;SDS011;51588;53.702;10.208;2023-02-11T10:28:51;38.93;;;28.30;;
64894;SDS011;51588;53.702;10.208;2023-02-11T10:31:20;38.93;;;28.53;;
64894;SDS011;51588;53.702;10.208;2023-02-11T10:33:49;37.30;;;29.33;;
64894;SDS011;51588;53.702;10.208;2023-02-11T10:36:17;36.03;;;26.90;;
64894;SDS011;51588;53.702;10.208;2023-02-11T10:38:44;38.13;;;27.13;;
64894;SDS011;51588;53.702;10.208;2023-02-11T10:41:12;35.07;;;27.53;;
64894;SDS011;51588;53.702;10.208;2023-02-11T10:43:38;37.60;;;27.30;;
64894;SDS011;51588;53.702;10.208;2023-02-11T10:46:11;36.97;;;25.70;;
64894;SDS011;51588;53.702;10.208;2023-02-11T10:48:43;34.10;;;24.53;;
64894;SDS011;51588;53.702;10.208;2023-02-11T10:51:14;30.50;;;23.40;;
64894;SDS011;51588;53.702;10.208;2023-02-11T10:53:41;32.73;;;23.80;;
64894;SDS011;51588;53.702;10.208;2023-02-11T10:56:09;29.20;;;22.30;;
64894;SDS011;51588;53.702;10.208;2023-02-11T10:58:39;27.77;;;21.63;;
64894;SDS011;51588;53.702;10.208;2023-02-11T11:01:06;28.27;;;20.77;;
64894;SDS011;51588;53.702;10.208;2023-02-11T11:03:35;28.50;;;19.80;;
64894;SDS011;51588;53.702;10.208;2023-02-11T11:06:04;22.97;;;18.20;;
64894;SDS011;51588;53.702;10.208;2023-02-11T11:08:38;21.50;;;16.93;;
64894;SDS011;51588;53.702;10.208;2023-02-11T11:11:05;21.47;;;16.50;;
64894;SDS011;51588;53.702;10.208;2023-02-11T11:13:33;22.10;;;15.33;;
64894;SDS011;51588;53.702;10.208;2023-02-11T11:16:05;18.57;;;15.10;;
64894;SDS011;51588;53.702;10.208;2023-02-11T11:18:34;19.30;;;14.97;;
64894;SDS011;51588;53.702;10.208;2023-02-11T11:21:01;19.80;;;14.13;;
64894;SDS011;51588;53.702;10.208;2023-02-11T11:23:27;18.60;;;14.27;;
64894;SDS011;51588;53.702;10.208;2023-02-11T11:25:59;15.43;;;12.70;;
64894;SDS011;51588;53.702;10.208;2023-02-11T11:28:27;16.27;;;12.30;;
64894;SDS011;51588;53.702;10.208;2023-02-11T11:30:54;15.03;;;12.60;;
64894;SDS011;51588;53.702;10.208;2023-02-11T11:33:21;16.43;;;12.13;;
64894;SDS011;51588;53.702;10.208;2023-02-11T11:35:56;16.40;;;11.63;;
64894;SDS011;51588;53.702;10.208;2023-02-11T11:38:23;15.53;;;10.70;;
64894;SDS011;51588;53.702;10.208;2023-02-11T11:43:30;13.13;;;10.50;;
64894;SDS011;51588;53.702;10.208;2023-02-11T11:45:58;15.70;;;10.70;;
64894;SDS011;51588;53.702;10.208;2023-02-11T11:48:25;13.47;;;9.47;;
64894;SDS011;51588;53.702;10.208;2023-02-11T11:50:53;15.93;;;10.27;;
64894;SDS011;51588;53.702;10.208;2023-02-11T11:53:23;13.37;;;8.87;;
64894;SDS011;51588;53.702;10.208;2023-02-11T11:55:55;11.67;;;8.70;;
64894;SDS011;51588;53.702;10.208;2023-02-11T11:58:23;10.80;;;8.87;;
64894;SDS011;51588;53.702;10.208;2023-02-11T12:00:53;10.63;;;7.73;;
64894;SDS011;51588;53.702;10.208;2023-02-11T12:03:26;14.00;;;8.03;;
64894;SDS011;51588;53.702;10.208;2023-02-11T12:05:58;9.30;;;7.80;;
64894;SDS011;51588;53.702;10.208;2023-02-11T12:08:31;12.10;;;8.23;;
64894;SDS011;51588;53.702;10.208;2023-02-11T12:11:06;10.30;;;7.30;;
64894;SDS011;51588;53.702;10.208;2023-02-11T12:13:39;10.00;;;6.67;;
64894;SDS011;51588;53.702;10.208;2023-02-11T12:16:11;9.57;;;7.10;;
64894;SDS011;51588;53.702;10.208;2023-02-11T12:18:48;8.70;;;6.97;;
64894;SDS011;51588;53.702;10.208;2023-02-11T12:21:21;10.20;;;7.27;;
64894;SDS011;51588;53.702;10.208;2023-02-11T12:23:54;8.47;;;6.40;;
64894;SDS011;51588;53.702;10.208;2023-02-11T12:26:25;8.10;;;6.00;;
64894;SDS011;51588;53.702;10.208;2023-02-11T12:28:59;10.90;;;6.57;;
64894;SDS011;51588;53.702;10.208;2023-02-11T12:31:31;10.20;;;6.60;;
64894;SDS011;51588;53.702;10.208;2023-02-11T12:34:06;7.50;;;5.80;;
64894;SDS011;51588;53.702;10.208;2023-02-11T12:36:52;7.63;;;5.00;;
64894;SDS011;51588;53.702;10.208;2023-02-11T12:39:25;7.93;;;5.50;;
64894;SDS011;51588;53.702;10.208;2023-02-11T12:42:01;6.73;;;4.90;;
64894;SDS011;51588;53.702;10.208;2023-02-11T12:44:51;8.77;;;5.67;;
64894;SDS011;51588;53.702;10.208;2023-02-11T12:47:25;9.00;;;5.83;;
64894;SDS011;51588;53.702;10.208;2023-02-11T12:49:59;7.00;;;5.47;;
64894;SDS011;51588;53.702;10.208;2023-02-11T12:52:31;5.87;;;4.40;;
64894;SDS011;51588;53.702;10.208;2023-02-11T12:55:01;5.40;;;4.40;;
64894;SDS011;51588;53.702;10.208;2023-02-11T12:57:29;5.93;;;4.33;;
64894;SDS011;51588;53.702;10.208;2023-02-11T12:59:57;6.10;;;4.70;;
64894;SDS011;51588;53.702;10.208;2023-02-11T13:02:31;6.70;;;4.63;;
64894;SDS011;51588;53.702;10.208;2023-02-11T13:05:00;5.57;;;4.23;;
64894;SDS011;51588;53.702;10.208;2023-02-11T13:07:30;5.97;;;4.10;;
64894;SDS011;51588;53.702;10.208;2023-02-11T13:09:58;4.90;;;3.80;;
64894;SDS011;51588;53.702;10.208;2023-02-11T13:12:28;7.20;;;4.60;;
64894;SDS011;51588;53.702;10.208;2023-02-11T13:15:16;5.00;;;4.10;;
64894;SDS011;51588;53.702;10.208;2023-02-11T13:17:45;5.27;;;3.90;;
64894;SDS011;51588;53.702;10.208;2023-02-11T13:20:17;5.30;;;3.77;;
64894;SDS011;51588;53.702;10.208;2023-02-11T13:22:47;5.00;;;4.13;;
64894;SDS011;51588;53.702;10.208;2023-02-11T13:25:18;4.80;;;3.97;;
64894;SDS011;51588;53.702;10.208;2023-02-11T13:27:50;7.67;;;4.30;;
64894;SDS011;51588;53.702;10.208;2023-02-11T13:30:23;5.27;;;3.87;;
64894;SDS011;51588;53.702;10.208;2023-02-11T13:33:02;4.30;;;3.67;;
64894;SDS011;51588;53.702;10.208;2023-02-11T13:35:31;6.00;;;3.40;;
64894;SDS011;51588;53.702;10.208;2023-02-11T13:37:58;5.03;;;3.73;;
64894;SDS011;51588;53.702;10.208;2023-02-11T13:40:25;3.93;;;3.00;;
64894;SDS011;51588;53.702;10.208;2023-02-11T13:42:55;5.23;;;3.23;;
64894;SDS011;51588;53.702;10.208;2023-02-11T13:47:54;5.23;;;3.77;;
64894;SDS011;51588;53.702;10.208;2023-02-11T13:50:22;3.60;;;2.70;;
64894;SDS011;51588;53.702;10.208;2023-02-11T13:52:54;4.40;;;3.40;;
64894;SDS011;51588;53.702;10.208;2023-02-11T13:55:22;5.73;;;3.30;;
64894;SDS011;51588;53.702;10.208;2023-02-11T14:03:27;5.60;;;2.93;;
64894;SDS011;51588;53.702;10.208;2023-02-11T14:06:12;4.57;;;3.27;;
64894;SDS011;51588;53.702;10.208;2023-02-11T14:09:04;5.37;;;3.13;;
64894;SDS011;51588;53.702;10.208;2023-02-11T14:11:42;4.57;;;2.90;;
64894;SDS011;51588;53.702;10.208;2023-02-11T14:14:14;3.87;;;2.90;;
64894;SDS011;51588;53.702;10.208;2023-02-11T14:19:33;7.43;;;3.57;;
64894;SDS011;51588;53.702;10.208;2023-02-11T14:22:01;5.10;;;3.00;;
64894;SDS011;51588;53.702;10.208;2023-02-11T14:24:44;5.83;;;3.20;;
64894;SDS011;51588;53.702;10.208;2023-02-11T14:27:14;3.43;;;3.00;;
64894;SDS011;51588;53.702;10.208;2023-02-11T14:29:48;6.23;;;3.13;;
64894;SDS011;51588;53.702;10.208;2023-02-11T14:32:18;4.37;;;3.03;;
64894;SDS011;51588;53.702;10.208;2023-02-11T14:34:54;5.30;;;3.40;;
64894;SDS011;51588;53.702;10.208;2023-02-11T14:37:26;5.60;;;3.10;;
64894;SDS011;51588;53.702;10.208;2023-02-11T14:39:57;5.90;;;3.17;;
64894;SDS011;51588;53.702;10.208;2023-02-11T14:42:25;6.10;;;3.23;;
64894;SDS011;51588;53.702;10.208;2023-02-11T14:44:53;4.53;;;2.90;;
64894;SDS011;51588;53.702;10.208;2023-02-11T14:47:22;4.80;;;2.73;;
64894;SDS011;51588;53.702;10.208;2023-02-11T14:49:50;4.37;;;2.80;;
64894;SDS011;51588;53.702;10.208;2023-02-11T14:52:21;5.20;;;3.00;;
64894;SDS011;51588;53.702;10.208;2023-02-11T14:54:51;4.13;;;2.77;;